Aeroporto :
LOGIN :

Iscrizione | Disclaimer

   EN    FR    IT 

 










Sommario :    VFR   VFR Marginale   IFR   IFR Intensivo   IFR Molto Intensivo
Visibilità : 
Base nubi : 
>= 8 km
>= 3000ft
5 / 8 km
1000 / 3000 ft
1500m / 5 km
500 / 1000 ft
800 / 1500m
200 / 500 ft
< 800m
< 200 ft
Simboli :   Temporali  Nebbia  Neve Forte  Precipitazioni Forti  Vento > 20 kt
SIGMETs :   Varie  Temporali  Ghiacco  Turbolenza  Onda orograficha  Ceneri Vulcaniche






- Altitudine del aeroporto : 2776 ft
- Codice IATA : VLL


LEVD - Valladolid

ULTIMO METAR :
  • 051800Z 26012KT 9999 FEW040 03/01 Q1005

METARs OBSOLETI :
  • 051730Z 27012KT 9999 FEW040 03/00 Q1004
  • 051700Z 26015KT 9999 FEW038 04/01 Q1004
  • 051630Z 27018KT 9999 FEW030 05/01 Q1004
  • 051600Z 26017KT 9999 FEW030 06/01 Q1003
  • 051530Z 28019KT 9999 SCT026 06/01 Q1003

TAF TAF LEVD
Valido dal 05 a 15 ore il 06 a 15 ore UTC


051400Z 0515/0615 27014KT 9999 FEW030 TX06/0614Z TNM02/0606Z
PROB30
TEMPO 0515/0517 FEW025TCU
PROB40
TEMPO 0515/0519 26020G32KT



MetMap, La meteo Aeronautica in un colpo d'occhio ! - Copyright ORBIFLY Dicembre 2007 - Disclaimer

ORBIFLY MET'MAP TEAM :

Programmazione e sviluppo : Alexandra Zaïnal
Concezione : Baudouin d'Aumeries
Aiuto per la programmazione : Marc-Olivier Méhu
Supporto tecnico e logistico : Manuel Goepfert
Aiuto per la traduzione : Arnaldo La Scala

Contatto : metmap@orbifly.com




FONTI E CREDITI :

   NOAA